Time;durP1;ratioP1;P1;durP2;ratioP2;P2;SDS_P1;SDS_P2;PMS_P1;PMS_P2;Temp;Humidity;BMP_temperature;BMP_pressure;BME280_temperature;BME280_humidity;BME280_pressure;Samples;Min_cycle;Max_cycle;Signal;HPM_P1;HPM_P2
2021/12/20 00:01:59;;;;;;;5.05;2.05;;;;;;;;;;5114349;28;20551;-65
2021/12/20 00:04:25;;;;;;;6.95;2.00;;;;;;;;;;5113703;28;20047;-65
2021/12/20 00:06:51;;;;;;;5.72;2.15;;;;;;;;;;5114653;28;20043;-65
2021/12/20 00:09:17;;;;;;;3.85;1.73;;;;;;;;;;5114849;28;20109;-65
2021/12/20 00:11:44;;;;;;;5.50;1.63;;;;;;;;;;5113800;28;20040;-65
2021/12/20 00:14:10;;;;;;;5.53;1.90;;;;;;;;;;5114345;28;20040;-65
2021/12/20 00:16:36;;;;;;;6.00;1.63;;;;;;;;;;5114572;28;20467;-65
2021/12/20 00:19:05;;;;;;;5.45;2.45;;;;;;;;;;5113444;28;20047;-65
2021/12/20 00:21:31;;;;;;;4.43;1.63;;;;;;;;;;5114504;28;20121;-65
2021/12/20 00:23:57;;;;;;;4.95;1.65;;;;;;;;;;5114114;28;20051;-65
2021/12/20 00:26:23;;;;;;;5.82;1.83;;;;;;;;;;5113297;28;20478;-65
2021/12/20 00:28:50;;;;;;;6.93;1.80;;;;;;;;;;5114127;28;20051;-65
2021/12/20 00:31:16;;;;;;;6.93;1.90;;;;;;;;;;5113945;28;20048;-65
2021/12/20 00:33:42;;;;;;;6.70;2.00;;;;;;;;;;5112822;28;20055;-66
2021/12/20 00:36:10;;;;;;;5.07;2.10;;;;;;;;;;5114046;28;20089;-65
2021/12/20 00:41:21;;;;;;;6.13;2.00;;;;;;;;;;5113181;28;20055;-65
2021/12/20 00:43:47;;;;;;;5.30;1.67;;;;;;;;;;5113576;28;20543;-65
2021/12/20 00:46:13;;;;;;;4.78;1.85;;;;;;;;;;5113723;28;20054;-65
2021/12/20 00:48:39;;;;;;;4.28;1.60;;;;;;;;;;5113311;28;20048;-65
2021/12/20 00:51:06;;;;;;;5.75;1.85;;;;;;;;;;5113621;28;20040;-65
2021/12/20 00:53:33;;;;;;;5.45;1.67;;;;;;;;;;5112950;28;20104;-65
2021/12/20 00:55:59;;;;;;;7.68;2.20;;;;;;;;;;5113497;28;20043;-65
2021/12/20 00:58:27;;;;;;;8.20;2.20;;;;;;;;;;5113586;28;20051;-65
2021/12/20 01:00:55;;;;;;;7.22;1.77;;;;;;;;;;5112517;28;20046;-65
2021/12/20 01:03:21;;;;;;;5.28;1.83;;;;;;;;;;5113558;28;20104;-65
2021/12/20 01:05:48;;;;;;;4.85;1.67;;;;;;;;;;5112950;28;20081;-65
2021/12/20 01:08:15;;;;;;;5.25;2.00;;;;;;;;;;5112762;28;20048;-65
2021/12/20 01:10:45;;;;;;;7.47;1.90;;;;;;;;;;5113486;28;20135;-65
2021/12/20 01:13:13;;;;;;;5.72;2.00;;;;;;;;;;5113370;28;20040;-65
2021/12/20 01:15:45;;;;;;;5.10;1.95;;;;;;;;;;5112772;28;20066;-65
2021/12/20 01:18:11;;;;;;;7.72;2.10;;;;;;;;;;5113136;28;20539;-65
2021/12/20 01:20:37;;;;;;;7.05;2.00;;;;;;;;;;5113288;28;20222;-65
2021/12/20 01:23:04;;;;;;;6.80;1.73;;;;;;;;;;5112538;28;20050;-65
2021/12/20 01:25:30;;;;;;;5.78;1.67;;;;;;;;;;5113174;28;20051;-65
2021/12/20 01:27:58;;;;;;;5.55;1.90;;;;;;;;;;5112644;28;20047;-65
2021/12/20 01:30:26;;;;;;;6.18;2.13;;;;;;;;;;5112410;28;20105;-64
2021/12/20 01:32:52;;;;;;;5.70;1.90;;;;;;;;;;5112743;28;20044;-65
2021/12/20 01:35:19;;;;;;;5.93;1.85;;;;;;;;;;5112938;28;20112;-65
2021/12/20 01:37:45;;;;;;;6.28;1.58;;;;;;;;;;5111825;28;20478;-65
2021/12/20 01:40:14;;;;;;;6.15;1.65;;;;;;;;;;5112923;28;20043;-65
2021/12/20 01:42:40;;;;;;;7.57;1.90;;;;;;;;;;5112113;27;20176;-65
2021/12/20 01:45:12;;;;;;;8.10;2.25;;;;;;;;;;5112455;28;20069;-65
2021/12/20 01:47:42;;;;;;;8.48;2.20;;;;;;;;;;5112086;28;20092;-65
2021/12/20 01:50:16;;;;;;;8.73;1.83;;;;;;;;;;5111886;28;20465;-65
2021/12/20 01:52:43;;;;;;;7.10;1.77;;;;;;;;;;5112310;28;20135;-65
2021/12/20 01:55:10;;;;;;;8.90;2.08;;;;;;;;;;5112475;28;20096;-65
2021/12/20 01:57:37;;;;;;;6.85;1.67;;;;;;;;;;5111961;28;20043;-65
2021/12/20 02:00:04;;;;;;;6.88;2.05;;;;;;;;;;5112085;28;20051;-65
2021/12/20 02:02:31;;;;;;;7.38;2.17;;;;;;;;;;5112303;28;20493;-65
2021/12/20 02:05:13;;;;;;;6.80;1.83;;;;;;;;;;5111024;28;20120;-65
2021/12/20 02:07:50;;;;;;;6.75;1.73;;;;;;;;;;5112684;28;20052;-65
2021/12/20 02:10:17;;;;;;;6.43;2.05;;;;;;;;;;5112402;28;20059;-65
2021/12/20 02:12:43;;;;;;;8.43;1.73;;;;;;;;;;5111424;28;20047;-65
2021/12/20 02:15:09;;;;;;;7.97;1.73;;;;;;;;;;5112190;28;20044;-65
2021/12/20 02:17:38;;;;;;;7.05;1.70;;;;;;;;;;5112127;28;20044;-65
2021/12/20 02:20:06;;;;;;;7.07;2.17;;;;;;;;;;5111127;28;20044;-65
2021/12/20 02:22:33;;;;;;;6.88;1.92;;;;;;;;;;5112148;28;20051;-65
2021/12/20 02:24:59;;;;;;;8.00;1.95;;;;;;;;;;5111079;28;20051;-65
2021/12/20 02:27:25;;;;;;;4.80;1.85;;;;;;;;;;5111981;28;20039;-65
2021/12/20 02:30:03;;;;;;;10.95;2.55;;;;;;;;;;5111672;28;20093;-65
2021/12/20 02:37:58;;;;;;;9.23;1.90;;;;;;;;;;5091243;28;20113;-65
2021/12/20 02:40:25;;;;;;;9.18;1.83;;;;;;;;;;5090557;28;20040;-65
2021/12/20 02:42:52;;;;;;;8.40;2.13;;;;;;;;;;5091041;28;20097;-65
2021/12/20 02:45:18;;;;;;;8.50;2.03;;;;;;;;;;5091399;28;20051;-65
2021/12/20 02:47:45;;;;;;;8.18;2.40;;;;;;;;;;5090395;28;20040;-64
2021/12/20 02:50:13;;;;;;;6.85;1.50;;;;;;;;;;5091318;28;20056;-65
2021/12/20 02:52:40;;;;;;;6.82;1.73;;;;;;;;;;5091588;28;20101;-65
2021/12/20 02:55:08;;;;;;;7.18;1.90;;;;;;;;;;5090004;28;20101;-65
2021/12/20 02:57:34;;;;;;;5.68;1.55;;;;;;;;;;5091046;28;20048;-65
2021/12/20 03:00:00;;;;;;;7.45;1.83;;;;;;;;;;5106205;28;20096;-65
2021/12/20 03:02:26;;;;;;;7.65;2.35;;;;;;;;;;5111648;28;20132;-65
2021/12/20 03:04:53;;;;;;;10.55;2.55;;;;;;;;;;5111082;28;20062;-65
2021/12/20 03:07:24;;;;;;;10.57;2.30;;;;;;;;;;5110770;28;20074;-65
2021/12/20 03:09:57;;;;;;;8.52;2.17;;;;;;;;;;5111858;28;20058;-64
2021/12/20 03:12:26;;;;;;;6.05;1.90;;;;;;;;;;5111380;28;20479;-65
2021/12/20 03:14:57;;;;;;;8.88;2.20;;;;;;;;;;5110698;28;20618;-65
2021/12/20 03:17:23;;;;;;;7.25;1.73;;;;;;;;;;5111480;28;20046;-65
2021/12/20 03:19:49;;;;;;;7.45;2.00;;;;;;;;;;5111113;28;20056;-65
2021/12/20 03:22:17;;;;;;;9.27;2.08;;;;;;;;;;5110586;28;20077;-65
2021/12/20 03:24:43;;;;;;;7.55;1.70;;;;;;;;;;5111271;28;20054;-65
2021/12/20 03:27:10;;;;;;;7.00;1.92;;;;;;;;;;5111421;28;20172;-65
2021/12/20 03:29:36;;;;;;;8.60;2.03;;;;;;;;;;5110471;28;20486;-65
2021/12/20 03:32:03;;;;;;;8.75;1.83;;;;;;;;;;5111037;28;20048;-65
2021/12/20 03:34:29;;;;;;;9.63;2.10;;;;;;;;;;5111219;28;20044;-65
2021/12/20 03:36:56;;;;;;;8.77;1.92;;;;;;;;;;5110663;28;20043;-65
2021/12/20 03:39:22;;;;;;;7.43;2.30;;;;;;;;;;5111168;28;20502;-65
2021/12/20 03:41:48;;;;;;;11.20;2.10;;;;;;;;;;5110809;28;20493;-65
2021/12/20 03:44:16;;;;;;;7.38;2.25;;;;;;;;;;5110225;28;20043;-65
2021/12/20 03:46:42;;;;;;;9.48;1.90;;;;;;;;;;5110959;28;20126;-65
2021/12/20 03:49:09;;;;;;;8.63;2.85;;;;;;;;;;5110697;28;20043;-65
2021/12/20 03:51:35;;;;;;;12.15;2.42;;;;;;;;;;5110868;28;20040;-65
2021/12/20 03:54:01;;;;;;;7.13;1.90;;;;;;;;;;5111090;28;20059;-65
2021/12/20 03:56:28;;;;;;;12.18;2.20;;;;;;;;;;5110140;28;20497;-65
2021/12/20 03:58:54;;;;;;;10.52;2.42;;;;;;;;;;5110819;28;20036;-65
2021/12/20 04:01:21;;;;;;;5.85;1.98;;;;;;;;;;5111070;28;20105;-65
2021/12/20 04:03:49;;;;;;;8.32;1.95;;;;;;;;;;5109872;28;20521;-65
2021/12/20 04:06:15;;;;;;;8.93;1.92;;;;;;;;;;5110583;28;20052;-65
2021/12/20 04:08:42;;;;;;;9.80;2.20;;;;;;;;;;5111046;28;20047;-65
2021/12/20 04:11:09;;;;;;;8.85;2.38;;;;;;;;;;5114204;28;20048;-65
2021/12/20 04:13:35;;;;;;;7.38;1.65;;;;;;;;;;5114711;28;20089;-65
2021/12/20 04:16:01;;;;;;;6.75;1.83;;;;;;;;;;5114337;28;20187;-65
2021/12/20 04:18:29;;;;;;;6.20;1.92;;;;;;;;;;5113550;28;20044;-65
2021/12/20 04:20:56;;;;;;;7.60;2.05;;;;;;;;;;5114101;28;20100;-65
2021/12/20 04:23:22;;;;;;;7.95;2.20;;;;;;;;;;5114540;28;20048;-65
2021/12/20 04:25:48;;;;;;;8.05;2.13;;;;;;;;;;5113190;28;20116;-65
2021/12/20 04:28:14;;;;;;;6.63;1.98;;;;;;;;;;5114301;28;20456;-65
2021/12/20 04:30:41;;;;;;;8.38;2.28;;;;;;;;;;5114249;28;20040;-65
2021/12/20 04:33:07;;;;;;;5.93;2.00;;;;;;;;;;5113184;28;20047;-65
2021/12/20 04:35:35;;;;;;;7.97;2.00;;;;;;;;;;5113965;28;20492;-65
2021/12/20 04:38:02;;;;;;;7.05;1.90;;;;;;;;;;5113744;28;20560;-65
2021/12/20 04:40:28;;;;;;;6.88;1.90;;;;;;;;;;5113151;28;20523;-65
2021/12/20 04:42:56;;;;;;;7.95;1.98;;;;;;;;;;5113809;28;20443;-65
2021/12/20 04:45:22;;;;;;;8.15;1.83;;;;;;;;;;5113986;28;20047;-65
2021/12/20 04:47:49;;;;;;;6.78;2.08;;;;;;;;;;5112924;28;20493;-65
2021/12/20 04:50:15;;;;;;;8.30;2.15;;;;;;;;;;5113903;28;20546;-65
2021/12/20 04:52:43;;;;;;;6.68;1.92;;;;;;;;;;5113122;28;20043;-65
2021/12/20 04:55:10;;;;;;;8.98;2.10;;;;;;;;;;5113952;28;20055;-65
2021/12/20 04:57:37;;;;;;;8.82;1.90;;;;;;;;;;5113675;28;20047;-65
2021/12/20 05:00:04;;;;;;;7.55;2.08;;;;;;;;;;5112809;28;20126;-65
2021/12/20 05:02:31;;;;;;;10.13;1.95;;;;;;;;;;5113569;28;20043;-65
2021/12/20 05:04:57;;;;;;;7.78;2.03;;;;;;;;;;5113284;28;20051;-65
2021/12/20 05:07:26;;;;;;;7.05;2.00;;;;;;;;;;5112880;28;20044;-65
2021/12/20 05:09:58;;;;;;;5.90;1.73;;;;;;;;;;5113638;28;20048;-65
2021/12/20 05:12:24;;;;;;;10.18;2.30;;;;;;;;;;5113535;28;20050;-65
2021/12/20 05:14:51;;;;;;;5.80;1.83;;;;;;;;;;5112335;28;20047;-65
2021/12/20 05:17:17;;;;;;;7.00;1.80;;;;;;;;;;5113494;28;20047;-65
2021/12/20 05:19:43;;;;;;;6.72;2.13;;;;;;;;;;5113171;28;20100;-65
2021/12/20 05:22:09;;;;;;;5.82;1.55;;;;;;;;;;5112549;28;20387;-65
2021/12/20 05:24:36;;;;;;;8.90;1.95;;;;;;;;;;5113200;28;20043;-65
2021/12/20 05:27:04;;;;;;;4.60;1.58;;;;;;;;;;5112854;28;20096;-64
2021/12/20 05:29:31;;;;;;;7.63;2.17;;;;;;;;;;5112300;28;20104;-64
2021/12/20 05:31:57;;;;;;;7.70;1.73;;;;;;;;;;5112896;28;20104;-62
2021/12/20 05:34:24;;;;;;;6.28;1.80;;;;;;;;;;5113102;28;20051;-62
2021/12/20 05:36:50;;;;;;;7.90;1.88;;;;;;;;;;5112039;28;20485;-62
2021/12/20 05:39:16;;;;;;;7.38;2.08;;;;;;;;;;5112841;28;20051;-62
2021/12/20 05:41:42;;;;;;;7.75;1.98;;;;;;;;;;5112010;28;20486;-62
2021/12/20 05:44:11;;;;;;;5.35;1.75;;;;;;;;;;5112677;28;20047;-62
2021/12/20 05:46:37;;;;;;;7.18;1.90;;;;;;;;;;5112951;28;20090;-63
2021/12/20 05:49:03;;;;;;;7.97;1.70;;;;;;;;;;5111993;28;20052;-62
2021/12/20 05:51:30;;;;;;;8.57;2.10;;;;;;;;;;5112780;28;20547;-62
2021/12/20 05:53:56;;;;;;;6.57;1.60;;;;;;;;;;5112442;28;20104;-62
2021/12/20 05:56:22;;;;;;;8.05;2.13;;;;;;;;;;5111836;28;20076;-62
2021/12/20 05:58:48;;;;;;;7.95;1.98;;;;;;;;;;5112370;28;20052;-62
2021/12/20 06:01:16;;;;;;;8.55;2.30;;;;;;;;;;5113681;28;20047;-63
2021/12/20 06:03:42;;;;;;;7.70;1.90;;;;;;;;;;5111641;28;20043;-63
2021/12/20 06:06:09;;;;;;;9.80;1.80;;;;;;;;;;5112923;28;20059;-63
2021/12/20 06:08:35;;;;;;;5.65;1.73;;;;;;;;;;5112351;28;20076;-63
2021/12/20 06:11:01;;;;;;;6.50;2.40;;;;;;;;;;5111160;28;20093;-63
2021/12/20 06:13:28;;;;;;;6.95;2.03;;;;;;;;;;5112059;28;20043;-63
2021/12/20 06:15:54;;;;;;;9.35;2.40;;;;;;;;;;5112287;28;20120;-63
2021/12/20 06:18:21;;;;;;;7.97;2.47;;;;;;;;;;5111487;28;20472;-63
2021/12/20 06:20:48;;;;;;;8.57;2.20;;;;;;;;;;5111869;28;20043;-63
2021/12/20 06:23:15;;;;;;;7.10;2.08;;;;;;;;;;5112033;28;20528;-63
2021/12/20 06:25:41;;;;;;;6.63;1.70;;;;;;;;;;5112295;28;20043;-63
2021/12/20 06:28:07;;;;;;;6.18;1.88;;;;;;;;;;5112132;28;20546;-63
2021/12/20 06:30:34;;;;;;;8.32;2.15;;;;;;;;;;5111738;28;20478;-63
2021/12/20 06:33:00;;;;;;;5.40;1.52;;;;;;;;;;5111372;28;20048;-63
2021/12/20 06:35:28;;;;;;;6.85;2.00;;;;;;;;;;5111818;28;20048;-63
2021/12/20 06:38:00;;;;;;;6.80;1.85;;;;;;;;;;5111581;28;20048;-63
2021/12/20 06:40:26;;;;;;;5.13;2.03;;;;;;;;;;5111633;28;20176;-63
2021/12/20 06:42:53;;;;;;;6.80;1.95;;;;;;;;;;5111783;28;20451;-63
2021/12/20 06:45:19;;;;;;;9.35;2.33;;;;;;;;;;5111348;28;20910;-63
2021/12/20 06:47:46;;;;;;;7.88;2.40;;;;;;;;;;5111463;28;20101;-63
2021/12/20 06:50:12;;;;;;;7.53;1.98;;;;;;;;;;5111472;28;20039;-63
2021/12/20 06:52:39;;;;;;;5.88;1.90;;;;;;;;;;5110972;28;20044;-63
2021/12/20 06:55:06;;;;;;;7.25;2.10;;;;;;;;;;5111324;28;20050;-63
2021/12/20 06:57:32;;;;;;;6.35;2.40;;;;;;;;;;5112025;28;20047;-63
2021/12/20 07:00:00;;;;;;;6.00;1.67;;;;;;;;;;5110673;28;20044;-63
2021/12/20 07:02:27;;;;;;;6.38;2.25;;;;;;;;;;5111579;28;20048;-63
2021/12/20 07:04:53;;;;;;;7.15;1.90;;;;;;;;;;5111021;28;20075;-63
2021/12/20 07:07:19;;;;;;;7.80;2.28;;;;;;;;;;5110552;28;20052;-63
2021/12/20 07:09:47;;;;;;;7.78;1.73;;;;;;;;;;5111337;28;20055;-63
2021/12/20 07:12:13;;;;;;;5.68;1.98;;;;;;;;;;5111638;28;20047;-63
2021/12/20 07:14:40;;;;;;;9.13;2.35;;;;;;;;;;5110823;28;20039;-63
2021/12/20 07:17:06;;;;;;;6.65;1.63;;;;;;;;;;5111320;28;20044;-62
2021/12/20 07:19:33;;;;;;;8.15;1.83;;;;;;;;;;5111461;28;20101;-62
2021/12/20 07:21:59;;;;;;;8.43;1.83;;;;;;;;;;5110273;28;20039;-62
2021/12/20 07:24:25;;;;;;;7.32;1.85;;;;;;;;;;5111558;28;20092;-62
2021/12/20 07:26:53;;;;;;;5.95;1.65;;;;;;;;;;5110719;28;20047;-65
2021/12/20 07:29:19;;;;;;;11.63;2.80;;;;;;;;;;5110632;28;20043;-64
2021/12/20 07:31:45;;;;;;;8.05;1.92;;;;;;;;;;5110634;28;20105;-62
2021/12/20 07:34:11;;;;;;;12.63;2.17;;;;;;;;;;5110968;28;20543;-65
2021/12/20 07:36:37;;;;;;;7.95;2.15;;;;;;;;;;5110139;28;20482;-63
2021/12/20 07:39:04;;;;;;;8.57;2.30;;;;;;;;;;5110493;28;20482;-62
2021/12/20 07:41:30;;;;;;;10.43;2.45;;;;;;;;;;5110421;28;20572;-63
2021/12/20 07:43:58;;;;;;;8.18;2.28;;;;;;;;;;5111260;28;20448;-61
2021/12/20 07:46:24;;;;;;;10.45;2.15;;;;;;;;;;5114720;28;20444;-62
2021/12/20 07:48:51;;;;;;;8.25;2.35;;;;;;;;;;5114489;28;20048;-62
2021/12/20 07:51:17;;;;;;;8.10;2.40;;;;;;;;;;5115026;28;20047;-62
2021/12/20 07:53:43;;;;;;;10.70;2.45;;;;;;;;;;5114766;28;20106;-63
2021/12/20 07:56:10;;;;;;;7.88;2.05;;;;;;;;;;5114537;28;20039;-63
2021/12/20 07:58:37;;;;;;;9.90;2.30;;;;;;;;;;5115025;28;20467;-63
2021/12/20 08:01:04;;;;;;;10.43;2.45;;;;;;;;;;5114808;28;20054;-63
2021/12/20 08:03:31;;;;;;;6.05;2.25;;;;;;;;;;5114059;28;20049;-63
2021/12/20 08:05:57;;;;;;;10.60;2.97;;;;;;;;;;5114311;28;20047;-62
2021/12/20 08:08:23;;;;;;;9.55;2.38;;;;;;;;;;5114786;28;20542;-63
2021/12/20 08:10:50;;;;;;;6.03;2.30;;;;;;;;;;5113999;28;20047;-63
2021/12/20 08:13:16;;;;;;;7.75;2.35;;;;;;;;;;5114960;28;20036;-62
2021/12/20 08:15:42;;;;;;;6.72;2.22;;;;;;;;;;5114531;28;20047;-63
2021/12/20 08:18:10;;;;;;;9.00;2.50;;;;;;;;;;5113721;28;20485;-62
2021/12/20 08:20:36;;;;;;;12.57;2.67;;;;;;;;;;5114949;28;20063;-62
2021/12/20 08:23:03;;;;;;;9.23;2.55;;;;;;;;;;5114355;28;20043;-63
2021/12/20 08:25:30;;;;;;;8.27;2.30;;;;;;;;;;5114244;28;20043;-63
2021/12/20 08:27:56;;;;;;;9.18;2.38;;;;;;;;;;5114140;28;20050;-63
2021/12/20 08:30:23;;;;;;;10.27;2.50;;;;;;;;;;5115059;28;20048;-63
2021/12/20 08:32:49;;;;;;;6.60;1.98;;;;;;;;;;5113253;28;20120;-63
2021/12/20 08:35:17;;;;;;;7.60;2.40;;;;;;;;;;5114469;28;20093;-64
2021/12/20 08:37:44;;;;;;;7.10;1.80;;;;;;;;;;5113182;28;20424;-64
2021/12/20 08:40:12;;;;;;;8.07;2.40;;;;;;;;;;5114241;28;20048;-63
2021/12/20 08:42:38;;;;;;;7.28;2.20;;;;;;;;;;5114380;28;20050;-62
2021/12/20 08:45:05;;;;;;;8.13;2.20;;;;;;;;;;5113056;28;20090;-62
2021/12/20 08:47:32;;;;;;;6.78;2.10;;;;;;;;;;5114034;28;20052;-62
2021/12/20 08:49:58;;;;;;;5.97;2.20;;;;;;;;;;5113896;28;20043;-62
2021/12/20 08:52:26;;;;;;;5.90;2.58;;;;;;;;;;5113336;28;20051;-62
2021/12/20 08:54:52;;;;;;;9.98;2.40;;;;;;;;;;5113408;28;20122;-62
2021/12/20 08:57:19;;;;;;;5.97;2.25;;;;;;;;;;5113918;28;20048;-62
2021/12/20 08:59:45;;;;;;;6.53;2.35;;;;;;;;;;5112958;28;20044;-62
2021/12/20 09:02:11;;;;;;;8.63;2.60;;;;;;;;;;5113630;28;20048;-62
2021/12/20 09:04:38;;;;;;;6.78;2.65;;;;;;;;;;5113589;28;20055;-64
2021/12/20 09:07:05;;;;;;;7.63;2.92;;;;;;;;;;5112619;28;20044;-62
2021/12/20 09:09:37;;;;;;;9.85;3.03;;;;;;;;;;5113832;28;20406;-62
2021/12/20 09:12:03;;;;;;;6.60;2.42;;;;;;;;;;5113488;28;20134;-62
2021/12/20 09:14:32;;;;;;;6.93;2.47;;;;;;;;;;5112752;28;20044;-62
2021/12/20 09:16:59;;;;;;;5.63;2.45;;;;;;;;;;5113488;28;20046;-62
2021/12/20 09:19:25;;;;;;;7.88;2.65;;;;;;;;;;5113511;28;20447;-64
2021/12/20 09:21:51;;;;;;;9.48;2.60;;;;;;;;;;5112435;28;20490;-65
2021/12/20 09:24:17;;;;;;;6.15;2.55;;;;;;;;;;5113379;28;20048;-65
2021/12/20 09:26:45;;;;;;;9.15;3.13;;;;;;;;;;5112975;28;20100;-62
2021/12/20 09:29:11;;;;;;;8.30;2.40;;;;;;;;;;5113164;28;20047;-62
2021/12/20 09:31:37;;;;;;;10.50;3.45;;;;;;;;;;5113404;28;20108;-61
2021/12/20 09:34:04;;;;;;;7.35;2.75;;;;;;;;;;5112187;28;20044;-62
2021/12/20 09:36:32;;;;;;;7.35;2.45;;;;;;;;;;5113264;28;20048;-61
2021/12/20 09:38:59;;;;;;;8.73;2.80;;;;;;;;;;5112842;28;20134;-61
2021/12/20 09:41:59;;;;;;;5.60;2.35;;;;;;;;;;5112154;28;20721;-62
2021/12/20 09:44:18;;;;;;;10.63;2.88;;;;;;;;;;5112911;28;20478;-62
2021/12/20 09:46:44;;;;;;;8.50;2.60;;;;;;;;;;5112729;28;20502;-61
2021/12/20 09:49:11;;;;;;;6.45;2.28;;;;;;;;;;5112338;28;20451;-62
2021/12/20 09:51:37;;;;;;;9.88;3.30;;;;;;;;;;5112748;28;20044;-62
2021/12/20 09:54:04;;;;;;;6.03;2.47;;;;;;;;;;5112403;28;20039;-62
2021/12/20 09:56:32;;;;;;;7.95;2.70;;;;;;;;;;5108686;28;20050;-64
2021/12/20 09:58:59;;;;;;;8.18;2.85;;;;;;;;;;5098473;28;20060;-62
2021/12/20 10:01:27;;;;;;;9.00;2.40;;;;;;;;;;5112412;28;20742;-62
2021/12/20 10:03:54;;;;;;;8.88;2.72;;;;;;;;;;5111429;28;20047;-62
2021/12/20 10:06:20;;;;;;;6.22;2.10;;;;;;;;;;5112036;28;20048;-62
2021/12/20 10:08:52;;;;;;;7.13;2.60;;;;;;;;;;5111526;28;20478;-61
2021/12/20 10:11:19;;;;;;;10.30;2.60;;;;;;;;;;5111471;28;20467;-62
2021/12/20 10:13:45;;;;;;;7.25;2.15;;;;;;;;;;5112046;28;20048;-61
2021/12/20 10:16:14;;;;;;;8.35;2.22;;;;;;;;;;5111599;28;20096;-62
2021/12/20 10:18:42;;;;;;;7.00;2.45;;;;;;;;;;5112492;28;20051;-62
2021/12/20 10:21:08;;;;;;;6.03;2.28;;;;;;;;;;5111905;28;20048;-62
2021/12/20 10:23:40;;;;;;;7.63;2.53;;;;;;;;;;5111428;28;20043;-62
2021/12/20 10:26:12;;;;;;;10.13;2.15;;;;;;;;;;5111696;28;20039;-62
2021/12/20 10:28:39;;;;;;;6.53;2.38;;;;;;;;;;5111971;28;20382;-62
2021/12/20 10:31:07;;;;;;;9.05;2.35;;;;;;;;;;5111285;28;20031;-62
2021/12/20 10:33:33;;;;;;;6.78;1.90;;;;;;;;;;5111930;28;20382;-62
2021/12/20 10:36:02;;;;;;;9.32;2.17;;;;;;;;;;5111499;28;20044;-62
2021/12/20 10:38:30;;;;;;;7.15;2.33;;;;;;;;;;5107941;28;20043;-61
2021/12/20 10:40:58;;;;;;;7.15;2.45;;;;;;;;;;5111031;28;20044;-61
2021/12/20 10:43:25;;;;;;;6.95;2.42;;;;;;;;;;5111696;28;20048;-62
2021/12/20 10:45:52;;;;;;;7.70;2.20;;;;;;;;;;5110646;28;20059;-62
2021/12/20 10:48:18;;;;;;;8.85;2.15;;;;;;;;;;5111620;28;20055;-62
2021/12/20 10:50:45;;;;;;;10.07;2.25;;;;;;;;;;5111510;28;20309;-61
2021/12/20 10:53:14;;;;;;;6.38;2.13;;;;;;;;;;5110952;28;20032;-62
2021/12/20 10:55:41;;;;;;;8.82;2.00;;;;;;;;;;5111834;28;20387;-62
2021/12/20 10:58:18;;;;;;;5.60;2.28;;;;;;;;;;5111748;28;20565;-63
2021/12/20 11:00:45;;;;;;;7.05;1.88;;;;;;;;;;5111197;28;20048;-63
2021/12/20 11:03:28;;;;;;;7.20;1.77;;;;;;;;;;5111715;28;20101;-62
2021/12/20 11:06:25;;;;;;;6.90;2.05;;;;;;;;;;5110212;28;20124;-62
2021/12/20 11:09:05;;;;;;;7.85;2.10;;;;;;;;;;5111216;28;20143;-62
2021/12/20 11:11:31;;;;;;;5.45;2.03;;;;;;;;;;5111126;28;20493;-62
2021/12/20 11:13:58;;;;;;;5.60;1.88;;;;;;;;;;5110480;28;20048;-63
2021/12/20 11:16:26;;;;;;;3.92;1.88;;;;;;;;;;5111385;28;20093;-62
2021/12/20 11:19:07;;;;;;;8.55;2.00;;;;;;;;;;5112897;28;20130;-62
2021/12/20 11:21:34;;;;;;;5.38;1.73;;;;;;;;;;5114253;28;20109;-62
2021/12/20 11:24:01;;;;;;;7.28;1.88;;;;;;;;;;5115303;28;20044;-62
2021/12/20 11:26:28;;;;;;;6.82;2.00;;;;;;;;;;5114337;28;20089;-64
2021/12/20 11:28:55;;;;;;;6.80;2.38;;;;;;;;;;5115125;28;20479;-65
2021/12/20 11:31:21;;;;;;;5.72;1.92;;;;;;;;;;5115507;28;20052;-65
2021/12/20 11:33:48;;;;;;;7.18;2.08;;;;;;;;;;5114198;28;20047;-64
2021/12/20 11:36:14;;;;;;;5.90;2.15;;;;;;;;;;5115423;28;20482;-65
2021/12/20 11:38:41;;;;;;;9.27;1.80;;;;;;;;;;5115357;28;20052;-65
2021/12/20 11:41:08;;;;;;;6.05;2.03;;;;;;;;;;5114060;28;20490;-65
2021/12/20 11:43:34;;;;;;;5.45;1.90;;;;;;;;;;5115442;28;20043;-65
2021/12/20 11:46:01;;;;;;;8.13;2.20;;;;;;;;;;5114961;28;20044;-65
2021/12/20 11:48:29;;;;;;;6.35;1.98;;;;;;;;;;5114211;28;20375;-64
2021/12/20 11:50:56;;;;;;;8.38;2.13;;;;;;;;;;5114919;28;20070;-65
2021/12/20 11:53:22;;;;;;;7.68;2.25;;;;;;;;;;5114843;28;20069;-64
2021/12/20 11:55:50;;;;;;;7.85;2.58;;;;;;;;;;5113697;28;20043;-65
2021/12/20 11:58:18;;;;;;;7.50;2.10;;;;;;;;;;5114804;28;20097;-63
2021/12/20 12:00:48;;;;;;;6.15;1.65;;;;;;;;;;5114662;28;20051;-64
2021/12/20 12:03:18;;;;;;;4.22;1.63;;;;;;;;;;5114547;28;20044;-65
2021/12/20 12:05:48;;;;;;;4.57;1.80;;;;;;;;;;5114524;28;20146;-65
2021/12/20 12:08:21;;;;;;;6.55;1.95;;;;;;;;;;5114860;28;20082;-66
2021/12/20 12:10:47;;;;;;;4.85;1.90;;;;;;;;;;5113367;28;20093;-66
2021/12/20 12:13:15;;;;;;;5.68;1.70;;;;;;;;;;5114709;28;20051;-65
2021/12/20 12:15:52;;;;;;;5.32;1.83;;;;;;;;;;5113670;28;20135;-65
2021/12/20 12:18:19;;;;;;;5.07;2.00;;;;;;;;;;5114772;28;20048;-64
2021/12/20 12:20:48;;;;;;;6.57;1.73;;;;;;;;;;5113977;28;20040;-66
2021/12/20 12:23:18;;;;;;;5.43;1.70;;;;;;;;;;5113754;28;20130;-67
2021/12/20 12:25:45;;;;;;;6.85;2.17;;;;;;;;;;5113659;28;20093;-67
2021/12/20 12:28:12;;;;;;;8.63;2.47;;;;;;;;;;5114261;28;20052;-65
2021/12/20 12:30:39;;;;;;;7.18;2.40;;;;;;;;;;5112880;28;20038;-65
2021/12/20 12:33:20;;;;;;;9.93;2.63;;;;;;;;;;5113906;28;20043;-65
2021/12/20 12:35:51;;;;;;;8.90;3.17;;;;;;;;;;5113962;28;20096;-64
2021/12/20 12:38:18;;;;;;;6.57;2.17;;;;;;;;;;5113597;28;20048;-65
2021/12/20 12:40:45;;;;;;;8.40;2.13;;;;;;;;;;5113845;28;20547;-62
2021/12/20 12:43:15;;;;;;;10.40;2.20;;;;;;;;;;5114477;28;20067;-62
2021/12/20 12:45:47;;;;;;;3.60;1.50;;;;;;;;;;5113603;28;20043;-62
2021/12/20 12:48:34;;;;;;;6.80;2.08;;;;;;;;;;5114132;28;20054;-62
2021/12/20 12:51:04;;;;;;;9.00;1.88;;;;;;;;;;5113163;28;20085;-62
2021/12/20 12:53:40;;;;;;;8.73;2.40;;;;;;;;;;5114149;28;20094;-62
2021/12/20 12:56:06;;;;;;;;;;;;;;;;;;5114179;28;20556;-62
2021/12/20 12:58:32;;;;;;;7.72;2.03;;;;;;;;;;5113435;28;19944;-62
2021/12/20 13:00:59;;;;;;;8.05;2.22;;;;;;;;;;5113736;28;20044;-62
2021/12/20 13:03:26;;;;;;;5.75;2.10;;;;;;;;;;5113881;28;20482;-62
2021/12/20 13:05:54;;;;;;;3.67;1.60;;;;;;;;;;5112731;28;20121;-62
2021/12/20 13:08:20;;;;;;;6.15;1.90;;;;;;;;;;5114088;28;20044;-62
2021/12/20 13:10:51;;;;;;;6.00;1.75;;;;;;;;;;5113566;28;20043;-62
2021/12/20 13:13:22;;;;;;;6.72;1.92;;;;;;;;;;5113058;28;20122;-62
2021/12/20 13:15:53;;;;;;;5.82;1.90;;;;;;;;;;5113378;28;20065;-62
2021/12/20 13:18:27;;;;;;;7.22;2.53;;;;;;;;;;5113624;28;20039;-62
2021/12/20 13:21:01;;;;;;;9.55;2.22;;;;;;;;;;5112671;28;20051;-62
2021/12/20 13:23:29;;;;;;;6.50;1.90;;;;;;;;;;5113731;28;20073;-61
2021/12/20 13:25:56;;;;;;;6.38;1.85;;;;;;;;;;5112347;28;20048;-61
2021/12/20 13:28:23;;;;;;;7.50;2.00;;;;;;;;;;5113520;28;20051;-62
2021/12/20 13:30:51;;;;;;;7.70;2.45;;;;;;;;;;5112843;28;20100;-62
2021/12/20 13:33:18;;;;;;;4.90;1.77;;;;;;;;;;5112786;28;20044;-62
2021/12/20 13:35:45;;;;;;;3.58;1.40;;;;;;;;;;5112998;28;20128;-62
2021/12/20 13:38:23;;;;;;;5.68;1.83;;;;;;;;;;5113424;28;20043;-62
2021/12/20 13:40:51;;;;;;;6.05;1.67;;;;;;;;;;5112044;28;20047;-62
2021/12/20 13:43:20;;;;;;;7.03;1.88;;;;;;;;;;5112084;28;20047;-61
2021/12/20 13:46:02;;;;;;;8.13;1.83;;;;;;;;;;5112770;28;20379;-61
2021/12/20 13:48:28;;;;;;;5.63;1.73;;;;;;;;;;5112260;28;20104;-62
2021/12/20 13:50:55;;;;;;;5.82;1.50;;;;;;;;;;5112548;28;20051;-61
2021/12/20 13:53:28;;;;;;;5.03;1.48;;;;;;;;;;5113131;28;20080;-61
2021/12/20 13:55:56;;;;;;;11.48;2.17;;;;;;;;;;5111795;28;20039;-62
2021/12/20 13:58:22;;;;;;;5.97;1.60;;;;;;;;;;5113104;28;20134;-62
2021/12/20 14:00:48;;;;;;;4.88;1.50;;;;;;;;;;5112540;28;20047;-62
2021/12/20 14:03:15;;;;;;;5.50;1.45;;;;;;;;;;5112348;28;20406;-62
2021/12/20 14:05:41;;;;;;;7.88;1.65;;;;;;;;;;5112515;28;20052;-62
2021/12/20 14:08:14;;;;;;;5.40;1.40;;;;;;;;;;5111635;28;20054;-62
2021/12/20 14:10:42;;;;;;;7.00;1.52;;;;;;;;;;5112862;28;20097;-62
2021/12/20 14:13:09;;;;;;;7.18;1.95;;;;;;;;;;5112641;28;20051;-62
2021/12/20 14:15:36;;;;;;;9.00;1.92;;;;;;;;;;5111760;28;20048;-62
2021/12/20 14:18:04;;;;;;;7.90;1.95;;;;;;;;;;5111955;28;20547;-62
2021/12/20 14:20:41;;;;;;;4.65;1.63;;;;;;;;;;5112328;28;20047;-62
2021/12/20 14:23:08;;;;;;;7.07;1.80;;;;;;;;;;5112537;28;20053;-62
2021/12/20 14:25:36;;;;;;;6.55;1.73;;;;;;;;;;5112459;28;20047;-62
2021/12/20 14:28:05;;;;;;;4.75;1.50;;;;;;;;;;5111901;28;20460;-62
2021/12/20 14:30:32;;;;;;;8.07;2.28;;;;;;;;;;5111440;28;20040;-61
2021/12/20 14:32:58;;;;;;;7.18;1.98;;;;;;;;;;5111667;28;20044;-62
2021/12/20 14:35:33;;;;;;;5.78;1.98;;;;;;;;;;5111925;28;20092;-62
2021/12/20 14:38:02;;;;;;;8.20;2.03;;;;;;;;;;5111274;28;20057;-62
2021/12/20 14:40:42;;;;;;;6.43;1.90;;;;;;;;;;5112159;28;20040;-62
2021/12/20 14:43:13;;;;;;;7.40;2.10;;;;;;;;;;5112031;28;20121;-61
2021/12/20 14:45:39;;;;;;;10.95;2.30;;;;;;;;;;5111423;28;20043;-61
2021/12/20 14:48:27;;;;;;;9.88;2.22;;;;;;;;;;5111693;28;20051;-62
2021/12/20 14:50:53;;;;;;;8.20;2.17;;;;;;;;;;5110949;28;20047;-62
2021/12/20 14:53:20;;;;;;;8.18;2.55;;;;;;;;;;5111583;28;20050;-62
2021/12/20 14:55:47;;;;;;;8.23;2.05;;;;;;;;;;5111537;28;20043;-61